Terminal Aerodrome Forecast
Issued by NWS

Home | Current Version | Previous Version | Text Only | Print | Product List | Glossary On
Versions: 1 2 3 4 5 6 7 8 9 10 11 12 13 14 15 16 17 18 19 20 21 22 23 24 25 26 27 28
000
FTUS41 KBGM 151131
TAFRME
TAF
KRME 151131Z 1512/1612 11005KT 3SM -SHSN OVC035
     FM151300 14005KT P6SM SCT035 BKN120
     FM152200 15005KT 5SM -SHSN OVC035
     FM160000 17004KT 3SM -SHSN OVC025
     FM160800 25008KT 3SM -SHSN OVC025=

USA.gov is the U.S. government's official web portal to all federal, state and local government web resources and services.